ADDS METAR Data INFO
IDs: Format: Raw Decoded Include TAF

Data at: 1017 UTC 14 Dec 2017

KCMA 140955Z AUTO 00000KT 4SM HZ FU CLR 07/M01 A2995 RMK AO2 SLP150 T00671006
KCMA 140855Z AUTO 00000KT 4SM HZ FU CLR 07/01 A2994 RMK AO2 SLP146 T00720006 56006
KCMA 140755Z AUTO 30003KT 4SM HZ FU CLR 07/00 A2994 RMK AO2 SLP147 T00670000 403060067
KCMA 140655Z AUTO 00000KT 3SM HZ FU CLR 08/02 A2995 RMK AO2 SLP149 T00830022
KCMA 140555Z AUTO 14003KT 3SM HZ FU CLR 09/03 A2996 RMK AO2 SLP152 T00890033 10194 20083 53005
KCMA 140455Z AUTO 29006KT 3SM HZ FU CLR 09/03 A2994 RMK AO2 SLP148 T00890028
KCMA 140355Z 02003KT 3SM HZ FU CLR 12/05 A2993 RMK AO2 SLP145 T01170050
KCMA 140255Z 05005KT 3SM HZ FU CLR 14/04 A2994 RMK AO2 SLP148 T01440044 50006
KCMA 140155Z 00000KT 3SM HZ FU CLR 16/05 A2995 RMK AO2 SLP150 T01610050
KCMA 140112Z 18003KT 3SM HZ FU CLR 16/07 A2994 RMK AO2 T01610072
KCMA 140055Z 23003KT 2SM HZ FU CLR 17/07 A2994 RMK AO2 SLP145 T01720072
KCMA 132355Z 22004KT 2SM HZ FU CLR 19/09 A2992 RMK AO2 SLP141 6//// T01940089 10306 20194 58003
KCMA 132321Z 21005KT 2SM HZ FU CLR 20/08 A2992 RMK AO2 T02000083
KCMA 132310Z 19005KT 1 3/4SM HZ FU CLR 21/08 A2992 RMK AO2 T02060083
KCMA 132255Z 20006KT 2SM HZ FU CLR 21/09 A2993 RMK AO2 SLP142 T02060089
KCMA 132217Z 19007KT 2SM HZ FU CLR 22/08 A2994 RMK AO2 T02170078
KCMA 132155Z 19006KT 1 3/4SM HZ FU CLR 22/07 A2994 RMK AO2 SLP145 T02220067
KCMA 132055Z AUTO 22010KT 9SM CLR 25/02 A2995 RMK AO2 SLP148 6//// T02500022 TSNO
KCMA 131955Z 30009KT 10SM CLR 30/M10 A2996 RMK AO2 SLP152 T03001100
KCMA 131855Z 31008KT 10SM CLR 27/M08 A2999 RMK AO2 SLP164 T02721083
KCMA 131755Z 29005KT 10SM CLR 24/M03 A3002 RMK AO2 SLP174 T02391028 10244 20083 50004
KCMA 131655Z 31004KT 10SM CLR 21/M08 A3003 RMK AO2 SLP176 T02111078
KCMA 131555Z 35003KT 10SM CLR 13/M07 A3002 RMK AO2 SLP174 T01331072
KCMA 131455Z 32005KT 10SM CLR 09/M08 A3001 RMK AO2 SLP171 T00941078 53006 $
KCMA 131355Z AUTO 04006KT 10SM CLR 12/M12 A3000 RMK AO2 SLP167 T01221122
KCMA 131255Z AUTO 04006KT 10SM CLR 16/M16 A2999 RMK AO2 SLP164 T01611156
KCMA 131155Z AUTO 00000KT 10SM CLR 09/M09 A2999 RMK AO2 SLP165 7//// T00891089 10161 20089 58009
KCMA 131055Z AUTO 31005KT 10SM CLR 12/M13 A3001 RMK AO2 SLP171 T01221128
KCMA 130955Z AUTO 31007KT 10SM CLR 11/M09 A3002 RMK AO2 SLP172 T01111094
KCMA 130855Z AUTO 34003KT 10SM CLR 12/M11 A3002 RMK AO2 SLPNO T01221106 58006
KCMA 130755Z AUTO 02007KT 10SM CLR 10/M09 A3003 RMK AO2 SLPNO T01001094 403060089
KCMA 130655Z AUTO VRB04KT 10SM CLR 12/M11 A3004 RMK AO2 SLPNO T01221111
KCMA 130555Z AUTO 29004KT 10SM CLR 16/M14 A3004 RMK AO2 SLPNO T01561139 10267 20111 56005
KCMA 130455Z AUTO 31005KT 10SM CLR 16/M12 A3005 RMK AO2 SLPNO T01561122
KCMA 130355Z 31004KT 5SM FU CLR 13/M03 A3004 RMK AO2 SLPNO T01281028
KCMA 130255Z 29006KT 4SM FU CLR 12/M01 A3005 RMK AO2 SLPNO T01221011 52006
KCMA 130155Z 33003KT 5SM FU CLR 17/M02 A3005 RMK AO2 SLPNO T01721017
KCMA 130055Z 28009KT 4SM FU CLR 21/M04 A3004 RMK AO2 SLPNO T02061039
KCMA 122355Z 29005KT 7SM CLR 27/M17 A3004 RMK AO2 SLPNO 6//// T02721172
KCMA 122255Z 08007KT 10SM CLR 30/M22 A3004 RMK AO2 SLPNO T03001222